sensor_id;sensor_type;location;lat;lon;timestamp;P1;durP1;ratioP1;P2;durP2;ratioP2
57155;SDS011;43023;59.928;10.682;2022-08-01T00:01:24;0.82;;;0.52;;
57155;SDS011;43023;59.928;10.682;2022-08-01T00:03:50;1.73;;;0.90;;
57155;SDS011;43023;59.928;10.682;2022-08-01T00:06:16;1.10;;;1.00;;
57155;SDS011;43023;59.928;10.682;2022-08-01T00:08:42;1.00;;;0.80;;
57155;SDS011;43023;59.928;10.682;2022-08-01T00:11:08;2.00;;;1.00;;
57155;SDS011;43023;59.928;10.682;2022-08-01T00:13:34;0.68;;;0.68;;
57155;SDS011;43023;59.928;10.682;2022-08-01T00:16:00;1.20;;;1.10;;
57155;SDS011;43023;59.928;10.682;2022-08-01T00:18:26;1.23;;;0.90;;
57155;SDS011;43023;59.928;10.682;2022-08-01T00:20:52;3.47;;;1.45;;
57155;SDS011;43023;59.928;10.682;2022-08-01T00:23:18;0.55;;;0.55;;
57155;SDS011;43023;59.928;10.682;2022-08-01T00:25:44;1.33;;;0.80;;
57155;SDS011;43023;59.928;10.682;2022-08-01T00:28:10;1.77;;;1.27;;
57155;SDS011;43023;59.928;10.682;2022-08-01T00:30:38;0.73;;;0.73;;
57155;SDS011;43023;59.928;10.682;2022-08-01T00:33:04;2.95;;;0.90;;
57155;SDS011;43023;59.928;10.682;2022-08-01T00:35:30;0.70;;;0.68;;
57155;SDS011;43023;59.928;10.682;2022-08-01T00:37:56;0.73;;;0.70;;
57155;SDS011;43023;59.928;10.682;2022-08-01T00:40:22;1.20;;;0.80;;
57155;SDS011;43023;59.928;10.682;2022-08-01T00:42:48;1.27;;;1.10;;
57155;SDS011;43023;59.928;10.682;2022-08-01T00:45:14;3.80;;;1.23;;
57155;SDS011;43023;59.928;10.682;2022-08-01T00:47:40;0.60;;;0.60;;
57155;SDS011;43023;59.928;10.682;2022-08-01T00:50:07;2.63;;;1.23;;
57155;SDS011;43023;59.928;10.682;2022-08-01T00:52:33;1.48;;;1.05;;
57155;SDS011;43023;59.928;10.682;2022-08-01T00:54:59;3.35;;;1.10;;
57155;SDS011;43023;59.928;10.682;2022-08-01T00:57:25;1.10;;;1.00;;
57155;SDS011;43023;59.928;10.682;2022-08-01T00:59:52;0.85;;;0.70;;
57155;SDS011;43023;59.928;10.682;2022-08-01T01:02:18;1.17;;;0.95;;
57155;SDS011;43023;59.928;10.682;2022-08-01T01:04:44;0.93;;;0.80;;
57155;SDS011;43023;59.928;10.682;2022-08-01T01:09:44;1.30;;;0.60;;
57155;SDS011;43023;59.928;10.682;2022-08-01T01:17:27;1.40;;;0.75;;
57155;SDS011;43023;59.928;10.682;2022-08-01T01:19:54;3.22;;;0.98;;
57155;SDS011;43023;59.928;10.682;2022-08-01T01:22:22;0.50;;;0.50;;
57155;SDS011;43023;59.928;10.682;2022-08-01T01:29:44;1.50;;;0.70;;
57155;SDS011;43023;59.928;10.682;2022-08-01T01:34:43;0.93;;;0.70;;
57155;SDS011;43023;59.928;10.682;2022-08-01T01:37:12;1.67;;;0.75;;
57155;SDS011;43023;59.928;10.682;2022-08-01T01:39:40;0.60;;;0.60;;
57155;SDS011;43023;59.928;10.682;2022-08-01T01:42:06;0.80;;;0.80;;
57155;SDS011;43023;59.928;10.682;2022-08-01T01:44:33;0.85;;;0.60;;
57155;SDS011;43023;59.928;10.682;2022-08-01T01:46:59;1.83;;;0.80;;
57155;SDS011;43023;59.928;10.682;2022-08-01T01:49:26;0.80;;;0.80;;
57155;SDS011;43023;59.928;10.682;2022-08-01T01:51:53;0.65;;;0.55;;
57155;SDS011;43023;59.928;10.682;2022-08-01T01:54:20;1.08;;;0.98;;
57155;SDS011;43023;59.928;10.682;2022-08-01T01:56:47;0.60;;;0.60;;
57155;SDS011;43023;59.928;10.682;2022-08-01T01:59:16;0.88;;;0.73;;
57155;SDS011;43023;59.928;10.682;2022-08-01T02:01:44;0.70;;;0.70;;
57155;SDS011;43023;59.928;10.682;2022-08-01T02:04:11;0.73;;;0.73;;
57155;SDS011;43023;59.928;10.682;2022-08-01T02:06:38;2.05;;;0.70;;
57155;SDS011;43023;59.928;10.682;2022-08-01T02:09:05;1.60;;;0.75;;
57155;SDS011;43023;59.928;10.682;2022-08-01T02:11:31;0.55;;;0.52;;
57155;SDS011;43023;59.928;10.682;2022-08-01T02:13:59;1.35;;;0.63;;
57155;SDS011;43023;59.928;10.682;2022-08-01T02:19:30;1.00;;;1.00;;
57155;SDS011;43023;59.928;10.682;2022-08-01T02:24:34;1.48;;;0.90;;
57155;SDS011;43023;59.928;10.682;2022-08-01T02:27:05;0.90;;;0.90;;
57155;SDS011;43023;59.928;10.682;2022-08-01T02:29:37;2.75;;;1.00;;
57155;SDS011;43023;59.928;10.682;2022-08-01T02:32:03;1.40;;;0.98;;
57155;SDS011;43023;59.928;10.682;2022-08-01T02:34:30;2.08;;;0.80;;
57155;SDS011;43023;59.928;10.682;2022-08-01T02:36:58;4.97;;;0.93;;
57155;SDS011;43023;59.928;10.682;2022-08-01T02:39:26;2.05;;;0.98;;
57155;SDS011;43023;59.928;10.682;2022-08-01T02:41:55;2.40;;;0.90;;
57155;SDS011;43023;59.928;10.682;2022-08-01T02:44:24;0.80;;;0.65;;
57155;SDS011;43023;59.928;10.682;2022-08-01T02:46:54;0.73;;;0.73;;
57155;SDS011;43023;59.928;10.682;2022-08-01T02:49:22;0.88;;;0.65;;
57155;SDS011;43023;59.928;10.682;2022-08-01T02:51:49;0.80;;;0.80;;
57155;SDS011;43023;59.928;10.682;2022-08-01T02:54:17;1.00;;;0.63;;
57155;SDS011;43023;59.928;10.682;2022-08-01T02:56:44;0.60;;;0.60;;
57155;SDS011;43023;59.928;10.682;2022-08-01T02:59:12;0.98;;;0.70;;
57155;SDS011;43023;59.928;10.682;2022-08-01T03:01:39;0.68;;;0.68;;
57155;SDS011;43023;59.928;10.682;2022-08-01T03:04:06;0.60;;;0.50;;
57155;SDS011;43023;59.928;10.682;2022-08-01T03:06:32;1.50;;;0.70;;
57155;SDS011;43023;59.928;10.682;2022-08-01T03:09:03;0.75;;;0.68;;
57155;SDS011;43023;59.928;10.682;2022-08-01T03:11:30;0.60;;;0.57;;
57155;SDS011;43023;59.928;10.682;2022-08-01T03:13:56;0.88;;;0.88;;
57155;SDS011;43023;59.928;10.682;2022-08-01T03:16:24;0.65;;;0.65;;
57155;SDS011;43023;59.928;10.682;2022-08-01T03:18:52;0.60;;;0.60;;
57155;SDS011;43023;59.928;10.682;2022-08-01T03:21:19;1.20;;;0.80;;
57155;SDS011;43023;59.928;10.682;2022-08-01T03:23:46;0.70;;;0.70;;
57155;SDS011;43023;59.928;10.682;2022-08-01T03:26:13;1.15;;;0.98;;
57155;SDS011;43023;59.928;10.682;2022-08-01T03:28:40;0.82;;;0.77;;
57155;SDS011;43023;59.928;10.682;2022-08-01T03:31:07;0.80;;;0.80;;
57155;SDS011;43023;59.928;10.682;2022-08-01T03:33:33;1.33;;;0.90;;
57155;SDS011;43023;59.928;10.682;2022-08-01T03:35:59;0.50;;;0.50;;
57155;SDS011;43023;59.928;10.682;2022-08-01T03:38:26;0.85;;;0.75;;
57155;SDS011;43023;59.928;10.682;2022-08-01T03:40:56;1.17;;;0.80;;
57155;SDS011;43023;59.928;10.682;2022-08-01T03:43:35;0.60;;;0.60;;
57155;SDS011;43023;59.928;10.682;2022-08-01T03:46:06;0.68;;;0.65;;
57155;SDS011;43023;59.928;10.682;2022-08-01T03:48:34;0.82;;;0.68;;
57155;SDS011;43023;59.928;10.682;2022-08-01T03:51:01;0.47;;;0.47;;
57155;SDS011;43023;59.928;10.682;2022-08-01T03:53:30;0.47;;;0.47;;
57155;SDS011;43023;59.928;10.682;2022-08-01T03:55:56;1.15;;;0.73;;
57155;SDS011;43023;59.928;10.682;2022-08-01T03:58:23;0.60;;;0.60;;
57155;SDS011;43023;59.928;10.682;2022-08-01T04:00:50;0.57;;;0.45;;
57155;SDS011;43023;59.928;10.682;2022-08-01T04:03:16;0.70;;;0.60;;
57155;SDS011;43023;59.928;10.682;2022-08-01T04:05:43;0.70;;;0.70;;
57155;SDS011;43023;59.928;10.682;2022-08-01T04:08:09;0.88;;;0.57;;
57155;SDS011;43023;59.928;10.682;2022-08-01T04:10:36;2.50;;;0.77;;
57155;SDS011;43023;59.928;10.682;2022-08-01T04:13:02;0.68;;;0.60;;
57155;SDS011;43023;59.928;10.682;2022-08-01T04:15:28;0.47;;;0.47;;
57155;SDS011;43023;59.928;10.682;2022-08-01T04:17:54;0.52;;;0.50;;
57155;SDS011;43023;59.928;10.682;2022-08-01T04:20:20;1.13;;;1.02;;
57155;SDS011;43023;59.928;10.682;2022-08-01T04:22:46;0.50;;;0.50;;
57155;SDS011;43023;59.928;10.682;2022-08-01T04:25:26;1.20;;;0.63;;
57155;SDS011;43023;59.928;10.682;2022-08-01T04:27:54;1.75;;;0.80;;
57155;SDS011;43023;59.928;10.682;2022-08-01T04:30:27;1.13;;;0.88;;
57155;SDS011;43023;59.928;10.682;2022-08-01T04:32:55;0.57;;;0.57;;
57155;SDS011;43023;59.928;10.682;2022-08-01T04:35:23;0.60;;;0.50;;
57155;SDS011;43023;59.928;10.682;2022-08-01T04:37:50;2.88;;;1.80;;
57155;SDS011;43023;59.928;10.682;2022-08-01T04:40:17;3.22;;;2.10;;
57155;SDS011;43023;59.928;10.682;2022-08-01T04:42:46;2.78;;;1.80;;
57155;SDS011;43023;59.928;10.682;2022-08-01T04:45:13;2.45;;;2.00;;
57155;SDS011;43023;59.928;10.682;2022-08-01T04:47:39;5.57;;;1.95;;
57155;SDS011;43023;59.928;10.682;2022-08-01T04:50:06;2.15;;;1.60;;
57155;SDS011;43023;59.928;10.682;2022-08-01T04:52:36;4.57;;;2.17;;
57155;SDS011;43023;59.928;10.682;2022-08-01T04:55:03;3.95;;;2.25;;
57155;SDS011;43023;59.928;10.682;2022-08-01T04:57:31;4.97;;;2.83;;
57155;SDS011;43023;59.928;10.682;2022-08-01T04:59:57;2.42;;;2.17;;
57155;SDS011;43023;59.928;10.682;2022-08-01T05:02:23;2.10;;;1.83;;
57155;SDS011;43023;59.928;10.682;2022-08-01T05:04:53;2.63;;;2.40;;
57155;SDS011;43023;59.928;10.682;2022-08-01T05:07:20;2.97;;;1.50;;
57155;SDS011;43023;59.928;10.682;2022-08-01T05:09:46;3.58;;;2.30;;
57155;SDS011;43023;59.928;10.682;2022-08-01T05:12:12;4.50;;;2.47;;
57155;SDS011;43023;59.928;10.682;2022-08-01T05:14:38;5.95;;;2.03;;
57155;SDS011;43023;59.928;10.682;2022-08-01T05:17:05;2.22;;;2.00;;
57155;SDS011;43023;59.928;10.682;2022-08-01T05:19:32;7.60;;;2.30;;
57155;SDS011;43023;59.928;10.682;2022-08-01T05:21:59;4.95;;;2.17;;
57155;SDS011;43023;59.928;10.682;2022-08-01T05:24:30;5.25;;;1.75;;
57155;SDS011;43023;59.928;10.682;2022-08-01T05:26:56;2.95;;;2.22;;
57155;SDS011;43023;59.928;10.682;2022-08-01T05:29:22;2.92;;;2.20;;
57155;SDS011;43023;59.928;10.682;2022-08-01T05:31:49;3.08;;;2.17;;
57155;SDS011;43023;59.928;10.682;2022-08-01T05:34:15;2.70;;;1.95;;
57155;SDS011;43023;59.928;10.682;2022-08-01T05:36:41;4.88;;;2.28;;
57155;SDS011;43023;59.928;10.682;2022-08-01T05:39:07;2.47;;;1.48;;
57155;SDS011;43023;59.928;10.682;2022-08-01T05:41:33;7.13;;;1.42;;
57155;SDS011;43023;59.928;10.682;2022-08-01T05:43:59;3.28;;;1.55;;
57155;SDS011;43023;59.928;10.682;2022-08-01T05:46:25;2.80;;;1.73;;
57155;SDS011;43023;59.928;10.682;2022-08-01T05:48:51;1.77;;;1.08;;
57155;SDS011;43023;59.928;10.682;2022-08-01T05:51:17;3.58;;;1.25;;
57155;SDS011;43023;59.928;10.682;2022-08-01T05:53:43;1.38;;;1.27;;
57155;SDS011;43023;59.928;10.682;2022-08-01T05:56:09;1.90;;;1.30;;
57155;SDS011;43023;59.928;10.682;2022-08-01T05:58:35;3.55;;;1.38;;
57155;SDS011;43023;59.928;10.682;2022-08-01T06:01:01;1.38;;;1.20;;
57155;SDS011;43023;59.928;10.682;2022-08-01T06:03:28;4.97;;;1.60;;
57155;SDS011;43023;59.928;10.682;2022-08-01T06:05:57;3.08;;;2.03;;
57155;SDS011;43023;59.928;10.682;2022-08-01T06:08:23;1.65;;;1.52;;
57155;SDS011;43023;59.928;10.682;2022-08-01T06:10:49;2.88;;;1.85;;
57155;SDS011;43023;59.928;10.682;2022-08-01T06:13:15;2.35;;;1.90;;
57155;SDS011;43023;59.928;10.682;2022-08-01T06:15:41;5.07;;;1.75;;
57155;SDS011;43023;59.928;10.682;2022-08-01T06:18:07;4.75;;;2.13;;
57155;SDS011;43023;59.928;10.682;2022-08-01T06:20:33;4.50;;;2.13;;
57155;SDS011;43023;59.928;10.682;2022-08-01T06:22:59;2.20;;;2.00;;
57155;SDS011;43023;59.928;10.682;2022-08-01T06:25:25;2.67;;;1.90;;
57155;SDS011;43023;59.928;10.682;2022-08-01T06:27:51;1.65;;;1.55;;
57155;SDS011;43023;59.928;10.682;2022-08-01T06:30:17;2.58;;;1.92;;
57155;SDS011;43023;59.928;10.682;2022-08-01T06:32:44;2.88;;;1.73;;
57155;SDS011;43023;59.928;10.682;2022-08-01T06:35:10;2.25;;;1.30;;
57155;SDS011;43023;59.928;10.682;2022-08-01T06:37:36;1.52;;;1.27;;
57155;SDS011;43023;59.928;10.682;2022-08-01T06:42:28;3.20;;;1.40;;
57155;SDS011;43023;59.928;10.682;2022-08-01T06:44:57;3.10;;;1.70;;
57155;SDS011;43023;59.928;10.682;2022-08-01T06:47:23;1.45;;;1.05;;
57155;SDS011;43023;59.928;10.682;2022-08-01T06:49:49;1.25;;;1.15;;
57155;SDS011;43023;59.928;10.682;2022-08-01T06:52:15;1.52;;;1.25;;
57155;SDS011;43023;59.928;10.682;2022-08-01T06:54:41;5.75;;;1.60;;
57155;SDS011;43023;59.928;10.682;2022-08-01T06:57:07;1.50;;;1.13;;
57155;SDS011;43023;59.928;10.682;2022-08-01T06:59:33;1.17;;;1.08;;
57155;SDS011;43023;59.928;10.682;2022-08-01T07:01:59;1.20;;;1.00;;
57155;SDS011;43023;59.928;10.682;2022-08-01T07:04:26;1.75;;;1.00;;
57155;SDS011;43023;59.928;10.682;2022-08-01T07:06:52;4.60;;;1.10;;
57155;SDS011;43023;59.928;10.682;2022-08-01T07:09:18;4.10;;;1.10;;
57155;SDS011;43023;59.928;10.682;2022-08-01T07:11:44;5.43;;;1.40;;
57155;SDS011;43023;59.928;10.682;2022-08-01T07:14:10;3.47;;;1.40;;
57155;SDS011;43023;59.928;10.682;2022-08-01T07:16:36;6.75;;;1.55;;
57155;SDS011;43023;59.928;10.682;2022-08-01T07:19:02;2.30;;;0.70;;
57155;SDS011;43023;59.928;10.682;2022-08-01T07:21:28;1.92;;;1.30;;
57155;SDS011;43023;59.928;10.682;2022-08-01T07:23:54;2.05;;;0.90;;
57155;SDS011;43023;59.928;10.682;2022-08-01T07:26:21;4.40;;;1.10;;
57155;SDS011;43023;59.928;10.682;2022-08-01T07:28:47;1.17;;;1.08;;
57155;SDS011;43023;59.928;10.682;2022-08-01T07:31:13;1.10;;;1.00;;
57155;SDS011;43023;59.928;10.682;2022-08-01T07:33:39;1.08;;;0.93;;
57155;SDS011;43023;59.928;10.682;2022-08-01T07:36:06;4.75;;;2.28;;
57155;SDS011;43023;59.928;10.682;2022-08-01T07:38:32;1.48;;;1.00;;
57155;SDS011;43023;59.928;10.682;2022-08-01T07:40:58;1.13;;;1.10;;
57155;SDS011;43023;59.928;10.682;2022-08-01T07:43:24;1.58;;;0.73;;
57155;SDS011;43023;59.928;10.682;2022-08-01T07:45:50;1.70;;;1.02;;
57155;SDS011;43023;59.928;10.682;2022-08-01T07:48:16;1.60;;;0.95;;
57155;SDS011;43023;59.928;10.682;2022-08-01T07:50:44;1.35;;;0.90;;
57155;SDS011;43023;59.928;10.682;2022-08-01T07:53:10;1.75;;;0.90;;
57155;SDS011;43023;59.928;10.682;2022-08-01T07:55:36;0.75;;;0.75;;
57155;SDS011;43023;59.928;10.682;2022-08-01T07:58:02;0.70;;;0.70;;
57155;SDS011;43023;59.928;10.682;2022-08-01T08:00:29;1.33;;;0.80;;
57155;SDS011;43023;59.928;10.682;2022-08-01T08:02:55;1.13;;;0.80;;
57155;SDS011;43023;59.928;10.682;2022-08-01T08:05:23;1.55;;;0.88;;
57155;SDS011;43023;59.928;10.682;2022-08-01T08:07:49;0.98;;;0.80;;
57155;SDS011;43023;59.928;10.682;2022-08-01T08:10:15;1.63;;;1.10;;
57155;SDS011;43023;59.928;10.682;2022-08-01T08:12:41;1.25;;;0.93;;
57155;SDS011;43023;59.928;10.682;2022-08-01T08:15:07;1.90;;;0.90;;
57155;SDS011;43023;59.928;10.682;2022-08-01T08:17:34;0.50;;;0.50;;
57155;SDS011;43023;59.928;10.682;2022-08-01T08:20:00;1.05;;;0.98;;
57155;SDS011;43023;59.928;10.682;2022-08-01T08:22:27;2.58;;;0.90;;
57155;SDS011;43023;59.928;10.682;2022-08-01T08:24:53;1.45;;;0.90;;
57155;SDS011;43023;59.928;10.682;2022-08-01T08:27:19;1.98;;;0.70;;
57155;SDS011;43023;59.928;10.682;2022-08-01T08:29:45;2.92;;;0.55;;
57155;SDS011;43023;59.928;10.682;2022-08-01T08:32:11;0.77;;;0.77;;
57155;SDS011;43023;59.928;10.682;2022-08-01T08:34:37;0.70;;;0.70;;
57155;SDS011;43023;59.928;10.682;2022-08-01T08:37:03;2.20;;;0.90;;
57155;SDS011;43023;59.928;10.682;2022-08-01T08:39:29;1.10;;;1.05;;
57155;SDS011;43023;59.928;10.682;2022-08-01T08:41:57;0.60;;;0.60;;
57155;SDS011;43023;59.928;10.682;2022-08-01T08:44:24;0.55;;;0.45;;
57155;SDS011;43023;59.928;10.682;2022-08-01T08:46:51;0.93;;;0.80;;
57155;SDS011;43023;59.928;10.682;2022-08-01T08:49:21;0.50;;;0.50;;
57155;SDS011;43023;59.928;10.682;2022-08-01T08:51:49;2.20;;;0.82;;
57155;SDS011;43023;59.928;10.682;2022-08-01T08:54:16;3.70;;;0.63;;
57155;SDS011;43023;59.928;10.682;2022-08-01T08:56:43;0.60;;;0.60;;
57155;SDS011;43023;59.928;10.682;2022-08-01T08:59:10;0.52;;;0.52;;
57155;SDS011;43023;59.928;10.682;2022-08-01T09:01:38;0.55;;;0.55;;
57155;SDS011;43023;59.928;10.682;2022-08-01T09:04:04;0.85;;;0.73;;
57155;SDS011;43023;59.928;10.682;2022-08-01T09:06:31;2.17;;;0.55;;
57155;SDS011;43023;59.928;10.682;2022-08-01T09:08:58;0.82;;;0.70;;
57155;SDS011;43023;59.928;10.682;2022-08-01T09:11:24;0.50;;;0.50;;
57155;SDS011;43023;59.928;10.682;2022-08-01T09:16:36;0.60;;;0.60;;
57155;SDS011;43023;59.928;10.682;2022-08-01T09:19:06;0.73;;;0.47;;
57155;SDS011;43023;59.928;10.682;2022-08-01T09:21:32;0.50;;;0.47;;
57155;SDS011;43023;59.928;10.682;2022-08-01T09:23:59;0.57;;;0.57;;
57155;SDS011;43023;59.928;10.682;2022-08-01T09:26:32;0.50;;;0.40;;
57155;SDS011;43023;59.928;10.682;2022-08-01T09:28:58;0.55;;;0.55;;
57155;SDS011;43023;59.928;10.682;2022-08-01T09:31:25;0.60;;;0.43;;
57155;SDS011;43023;59.928;10.682;2022-08-01T09:33:56;0.60;;;0.50;;
57155;SDS011;43023;59.928;10.682;2022-08-01T09:36:50;0.40;;;0.40;;
57155;SDS011;43023;59.928;10.682;2022-08-01T09:39:17;0.20;;;0.20;;
57155;SDS011;43023;59.928;10.682;2022-08-01T09:41:43;0.60;;;0.60;;
57155;SDS011;43023;59.928;10.682;2022-08-01T09:44:09;0.60;;;0.60;;
57155;SDS011;43023;59.928;10.682;2022-08-01T09:46:35;2.30;;;0.50;;
57155;SDS011;43023;59.928;10.682;2022-08-01T09:49:05;1.95;;;0.40;;
57155;SDS011;43023;59.928;10.682;2022-08-01T09:51:35;0.50;;;0.50;;
57155;SDS011;43023;59.928;10.682;2022-08-01T09:54:02;0.60;;;0.60;;
57155;SDS011;43023;59.928;10.682;2022-08-01T09:56:36;0.40;;;0.40;;
57155;SDS011;43023;59.928;10.682;2022-08-01T09:59:02;0.75;;;0.60;;
57155;SDS011;43023;59.928;10.682;2022-08-01T10:01:29;0.75;;;0.50;;
57155;SDS011;43023;59.928;10.682;2022-08-01T10:04:05;0.50;;;0.50;;
57155;SDS011;43023;59.928;10.682;2022-08-01T10:06:31;1.45;;;0.57;;
57155;SDS011;43023;59.928;10.682;2022-08-01T10:08:57;0.63;;;0.35;;
57155;SDS011;43023;59.928;10.682;2022-08-01T10:11:23;0.40;;;0.40;;
57155;SDS011;43023;59.928;10.682;2022-08-01T10:13:49;0.55;;;0.55;;
57155;SDS011;43023;59.928;10.682;2022-08-01T10:16:16;0.55;;;0.55;;
57155;SDS011;43023;59.928;10.682;2022-08-01T10:18:42;0.52;;;0.52;;
57155;SDS011;43023;59.928;10.682;2022-08-01T10:21:10;0.40;;;0.40;;
57155;SDS011;43023;59.928;10.682;2022-08-01T10:23:37;0.40;;;0.40;;
57155;SDS011;43023;59.928;10.682;2022-08-01T10:26:07;0.55;;;0.35;;
57155;SDS011;43023;59.928;10.682;2022-08-01T10:28:34;0.65;;;0.65;;
57155;SDS011;43023;59.928;10.682;2022-08-01T10:31:01;0.28;;;0.28;;
57155;SDS011;43023;59.928;10.682;2022-08-01T10:33:28;0.40;;;0.40;;
57155;SDS011;43023;59.928;10.682;2022-08-01T10:35:55;0.45;;;0.45;;
57155;SDS011;43023;59.928;10.682;2022-08-01T10:38:21;0.40;;;0.40;;
57155;SDS011;43023;59.928;10.682;2022-08-01T10:40:48;0.32;;;0.32;;
57155;SDS011;43023;59.928;10.682;2022-08-01T10:43:14;0.70;;;0.43;;
57155;SDS011;43023;59.928;10.682;2022-08-01T10:45:42;0.30;;;0.30;;
57155;SDS011;43023;59.928;10.682;2022-08-01T10:48:22;0.52;;;0.35;;
57155;SDS011;43023;59.928;10.682;2022-08-01T10:50:51;0.30;;;0.30;;
57155;SDS011;43023;59.928;10.682;2022-08-01T10:53:22;0.50;;;0.50;;
57155;SDS011;43023;59.928;10.682;2022-08-01T10:55:49;0.40;;;0.40;;
57155;SDS011;43023;59.928;10.682;2022-08-01T10:58:22;0.40;;;0.40;;
57155;SDS011;43023;59.928;10.682;2022-08-01T11:00:48;0.20;;;0.20;;
57155;SDS011;43023;59.928;10.682;2022-08-01T11:03:14;0.40;;;0.40;;
57155;SDS011;43023;59.928;10.682;2022-08-01T11:05:40;0.40;;;0.40;;
57155;SDS011;43023;59.928;10.682;2022-08-01T11:08:12;1.17;;;0.50;;
57155;SDS011;43023;59.928;10.682;2022-08-01T11:10:46;0.70;;;0.43;;
57155;SDS011;43023;59.928;10.682;2022-08-01T11:13:12;0.73;;;0.40;;
57155;SDS011;43023;59.928;10.682;2022-08-01T11:15:39;0.20;;;0.20;;
57155;SDS011;43023;59.928;10.682;2022-08-01T11:20:56;0.47;;;0.45;;
57155;SDS011;43023;59.928;10.682;2022-08-01T11:23:23;0.95;;;0.20;;
57155;SDS011;43023;59.928;10.682;2022-08-01T11:30:42;0.35;;;0.32;;
57155;SDS011;43023;59.928;10.682;2022-08-01T11:33:08;0.38;;;0.38;;
57155;SDS011;43023;59.928;10.682;2022-08-01T11:35:35;0.30;;;0.30;;
57155;SDS011;43023;59.928;10.682;2022-08-01T11:40:46;0.30;;;0.30;;
57155;SDS011;43023;59.928;10.682;2022-08-01T11:45:48;0.30;;;0.30;;
57155;SDS011;43023;59.928;10.682;2022-08-01T11:48:17;1.25;;;0.40;;
57155;SDS011;43023;59.928;10.682;2022-08-01T11:50:43;0.50;;;0.35;;
57155;SDS011;43023;59.928;10.682;2022-08-01T11:53:10;0.25;;;0.25;;
57155;SDS011;43023;59.928;10.682;2022-08-01T11:55:36;0.25;;;0.25;;
57155;SDS011;43023;59.928;10.682;2022-08-01T11:58:03;0.40;;;0.40;;
57155;SDS011;43023;59.928;10.682;2022-08-01T12:00:29;0.40;;;0.40;;
57155;SDS011;43023;59.928;10.682;2022-08-01T12:03:00;0.28;;;0.28;;
57155;SDS011;43023;59.928;10.682;2022-08-01T12:05:26;0.30;;;0.30;;
57155;SDS011;43023;59.928;10.682;2022-08-01T12:07:53;0.20;;;0.20;;
57155;SDS011;43023;59.928;10.682;2022-08-01T12:10:20;0.30;;;0.30;;
57155;SDS011;43023;59.928;10.682;2022-08-01T12:12:47;0.20;;;0.13;;
57155;SDS011;43023;59.928;10.682;2022-08-01T12:15:14;0.68;;;0.45;;
57155;SDS011;43023;59.928;10.682;2022-08-01T12:17:44;0.20;;;0.20;;
57155;SDS011;43023;59.928;10.682;2022-08-01T12:20:11;0.30;;;0.30;;
57155;SDS011;43023;59.928;10.682;2022-08-01T12:22:38;1.60;;;0.20;;
57155;SDS011;43023;59.928;10.682;2022-08-01T12:25:17;0.08;;;0.08;;
57155;SDS011;43023;59.928;10.682;2022-08-01T12:27:44;0.30;;;0.20;;
57155;SDS011;43023;59.928;10.682;2022-08-01T12:30:14;0.30;;;0.30;;
57155;SDS011;43023;59.928;10.682;2022-08-01T12:32:41;0.43;;;0.43;;
57155;SDS011;43023;59.928;10.682;2022-08-01T12:35:08;1.08;;;0.40;;
57155;SDS011;43023;59.928;10.682;2022-08-01T12:37:36;0.20;;;0.20;;
57155;SDS011;43023;59.928;10.682;2022-08-01T12:40:08;0.20;;;0.20;;
57155;SDS011;43023;59.928;10.682;2022-08-01T12:42:36;0.32;;;0.32;;
57155;SDS011;43023;59.928;10.682;2022-08-01T12:45:03;0.25;;;0.25;;
57155;SDS011;43023;59.928;10.682;2022-08-01T12:47:29;0.10;;;0.10;;
57155;SDS011;43023;59.928;10.682;2022-08-01T12:49:55;0.20;;;0.20;;
57155;SDS011;43023;59.928;10.682;2022-08-01T12:52:21;0.28;;;0.28;;
57155;SDS011;43023;59.928;10.682;2022-08-01T12:57:47;0.20;;;0.20;;
57155;SDS011;43023;59.928;10.682;2022-08-01T13:00:19;0.28;;;0.20;;
57155;SDS011;43023;59.928;10.682;2022-08-01T13:02:46;0.20;;;0.20;;
57155;SDS011;43023;59.928;10.682;2022-08-01T13:05:13;1.00;;;0.50;;
57155;SDS011;43023;59.928;10.682;2022-08-01T13:07:47;1.02;;;0.20;;
57155;SDS011;43023;59.928;10.682;2022-08-01T13:10:13;0.10;;;0.10;;
57155;SDS011;43023;59.928;10.682;2022-08-01T13:12:40;0.10;;;0.10;;
57155;SDS011;43023;59.928;10.682;2022-08-01T13:15:23;0.10;;;0.10;;
57155;SDS011;43023;59.928;10.682;2022-08-01T13:17:50;0.20;;;0.10;;
57155;SDS011;43023;59.928;10.682;2022-08-01T13:20:30;1.42;;;0.30;;
57155;SDS011;43023;59.928;10.682;2022-08-01T13:23:16;0.30;;;0.30;;
57155;SDS011;43023;59.928;10.682;2022-08-01T13:25:55;0.17;;;0.17;;
57155;SDS011;43023;59.928;10.682;2022-08-01T13:28:22;0.30;;;0.30;;
57155;SDS011;43023;59.928;10.682;2022-08-01T13:33:17;0.20;;;0.20;;
57155;SDS011;43023;59.928;10.682;2022-08-01T13:35:43;0.35;;;0.28;;
57155;SDS011;43023;59.928;10.682;2022-08-01T13:38:11;0.20;;;0.20;;
57155;SDS011;43023;59.928;10.682;2022-08-01T13:40:37;0.20;;;0.20;;
57155;SDS011;43023;59.928;10.682;2022-08-01T13:43:03;0.20;;;0.20;;
57155;SDS011;43023;59.928;10.682;2022-08-01T13:45:29;0.10;;;0.10;;
57155;SDS011;43023;59.928;10.682;2022-08-01T13:47:55;0.30;;;0.30;;
57155;SDS011;43023;59.928;10.682;2022-08-01T13:50:21;1.02;;;0.20;;
57155;SDS011;43023;59.928;10.682;2022-08-01T13:52:47;0.20;;;0.17;;
57155;SDS011;43023;59.928;10.682;2022-08-01T13:55:13;0.10;;;0.10;;
57155;SDS011;43023;59.928;10.682;2022-08-01T13:57:39;0.20;;;0.20;;
57155;SDS011;43023;59.928;10.682;2022-08-01T14:00:06;0.22;;;0.10;;
57155;SDS011;43023;59.928;10.682;2022-08-01T14:02:33;0.17;;;0.10;;
57155;SDS011;43023;59.928;10.682;2022-08-01T14:04:59;0.20;;;0.20;;
57155;SDS011;43023;59.928;10.682;2022-08-01T14:07:26;0.45;;;0.20;;
57155;SDS011;43023;59.928;10.682;2022-08-01T14:09:52;0.50;;;0.25;;
57155;SDS011;43023;59.928;10.682;2022-08-01T14:12:18;0.20;;;0.20;;
57155;SDS011;43023;59.928;10.682;2022-08-01T14:14:44;0.20;;;0.20;;
57155;SDS011;43023;59.928;10.682;2022-08-01T14:17:10;0.10;;;0.10;;
57155;SDS011;43023;59.928;10.682;2022-08-01T14:19:36;2.35;;;0.63;;
57155;SDS011;43023;59.928;10.682;2022-08-01T14:22:02;0.10;;;0.10;;
57155;SDS011;43023;59.928;10.682;2022-08-01T14:24:28;2.40;;;0.20;;
57155;SDS011;43023;59.928;10.682;2022-08-01T14:26:54;0.20;;;0.10;;
57155;SDS011;43023;59.928;10.682;2022-08-01T14:29:20;0.63;;;0.20;;
57155;SDS011;43023;59.928;10.682;2022-08-01T14:31:46;0.15;;;0.10;;
57155;SDS011;43023;59.928;10.682;2022-08-01T14:34:12;0.80;;;0.10;;
57155;SDS011;43023;59.928;10.682;2022-08-01T14:36:38;0.10;;;0.10;;
57155;SDS011;43023;59.928;10.682;2022-08-01T14:39:04;0.63;;;0.20;;
57155;SDS011;43023;59.928;10.682;2022-08-01T14:41:31;0.88;;;0.20;;
57155;SDS011;43023;59.928;10.682;2022-08-01T14:43:57;1.15;;;0.13;;
57155;SDS011;43023;59.928;10.682;2022-08-01T14:46:24;0.43;;;0.20;;
57155;SDS011;43023;59.928;10.682;2022-08-01T14:48:50;1.27;;;0.30;;
57155;SDS011;43023;59.928;10.682;2022-08-01T14:51:16;0.75;;;0.30;;
57155;SDS011;43023;59.928;10.682;2022-08-01T14:53:42;0.40;;;0.10;;
57155;SDS011;43023;59.928;10.682;2022-08-01T14:56:08;0.57;;;0.20;;
57155;SDS011;43023;59.928;10.682;2022-08-01T14:58:34;0.10;;;0.10;;
57155;SDS011;43023;59.928;10.682;2022-08-01T15:01:00;0.35;;;0.00;;
57155;SDS011;43023;59.928;10.682;2022-08-01T15:03:27;0.98;;;0.20;;
57155;SDS011;43023;59.928;10.682;2022-08-01T15:05:53;0.63;;;0.40;;
57155;SDS011;43023;59.928;10.682;2022-08-01T15:08:19;1.67;;;0.30;;
57155;SDS011;43023;59.928;10.682;2022-08-01T15:10:45;0.73;;;0.20;;
57155;SDS011;43023;59.928;10.682;2022-08-01T15:13:11;0.20;;;0.15;;
57155;SDS011;43023;59.928;10.682;2022-08-01T15:15:37;0.35;;;0.20;;
57155;SDS011;43023;59.928;10.682;2022-08-01T15:18:03;0.20;;;0.20;;